createdAt,value
2024-01-29T00:01:50.421Z,5.03
2024-01-29T00:04:39.288Z,3.80
2024-01-29T00:07:28.492Z,5.03
2024-01-29T00:10:18.633Z,3.23
2024-01-29T00:13:07.380Z,3.80
2024-01-29T00:15:55.886Z,3.50
2024-01-29T00:18:44.821Z,3.73
2024-01-29T00:21:33.312Z,4.23
2024-01-29T00:24:22.056Z,4.50
2024-01-29T00:27:11.989Z,5.10
2024-01-29T00:30:02.509Z,4.00
2024-01-29T00:32:51.055Z,4.20
2024-01-29T00:35:39.570Z,3.60
2024-01-29T00:38:28.241Z,3.73
2024-01-29T00:41:16.772Z,4.27
2024-01-29T00:44:07.030Z,4.70
2024-01-29T00:46:55.636Z,3.92
2024-01-29T00:49:44.453Z,3.80
2024-01-29T00:52:34.555Z,4.43
2024-01-29T00:55:22.878Z,3.50
2024-01-29T00:58:11.246Z,3.90
2024-01-29T01:01:01.187Z,3.93
2024-01-29T01:03:49.640Z,4.70
2024-01-29T01:06:38.123Z,3.20
2024-01-29T01:09:26.592Z,4.20
2024-01-29T01:12:15.182Z,4.20
2024-01-29T01:15:03.670Z,4.70
2024-01-29T01:17:53.589Z,3.83
2024-01-29T01:20:42.026Z,5.60
2024-01-29T01:23:30.420Z,3.60
2024-01-29T01:26:18.795Z,4.10
2024-01-29T01:29:07.281Z,4.20
2024-01-29T01:31:55.621Z,6.07
2024-01-29T01:34:45.540Z,3.23
2024-01-29T01:37:34.053Z,4.20
2024-01-29T01:40:22.516Z,4.00
2024-01-29T01:43:18.297Z,4.75
2024-01-29T01:46:22.620Z,3.87
2024-01-29T01:49:12.550Z,3.10
2024-01-29T01:52:03.005Z,4.37
2024-01-29T01:54:54.410Z,4.23
2024-01-29T01:57:45.102Z,3.70
2024-01-29T02:00:34.440Z,5.70
2024-01-29T02:03:22.971Z,3.17
2024-01-29T02:06:12.103Z,3.87
2024-01-29T02:09:02.967Z,4.30
2024-01-29T02:11:51.592Z,3.43
2024-01-29T02:14:39.867Z,4.03
2024-01-29T02:17:28.273Z,3.90
2024-01-29T02:20:18.451Z,4.20
2024-01-29T02:23:08.379Z,3.67
2024-01-29T02:25:56.955Z,3.27
2024-01-29T02:28:45.322Z,4.03
2024-01-29T02:31:33.708Z,4.27
2024-01-29T02:34:22.178Z,3.90
2024-01-29T02:37:10.583Z,4.13
2024-01-29T02:40:01.211Z,4.30
2024-01-29T02:42:49.721Z,4.05
2024-01-29T02:45:38.159Z,3.63
2024-01-29T02:48:26.897Z,3.43
2024-01-29T02:51:15.341Z,5.23
2024-01-29T02:54:03.753Z,3.20
2024-01-29T02:56:53.621Z,3.73
2024-01-29T02:59:42.058Z,3.37
2024-01-29T03:02:30.670Z,4.30
2024-01-29T03:05:19.188Z,3.87
2024-01-29T03:08:08.260Z,4.63
2024-01-29T03:10:56.639Z,3.60
2024-01-29T03:13:47.690Z,3.40
2024-01-29T03:16:36.071Z,4.73
2024-01-29T03:19:24.638Z,5.83
2024-01-29T03:22:13.134Z,4.20
2024-01-29T03:25:01.664Z,4.07
2024-01-29T03:27:50.122Z,5.87
2024-01-29T03:30:39.883Z,4.20
2024-01-29T03:33:28.312Z,4.97
2024-01-29T03:36:16.601Z,5.10
2024-01-29T03:39:05.134Z,3.73
2024-01-29T03:41:53.542Z,4.13
2024-01-29T03:44:41.845Z,4.47
2024-01-29T03:47:31.636Z,3.40
2024-01-29T03:50:20.005Z,5.20
2024-01-29T03:53:08.326Z,3.10
2024-01-29T03:55:57.934Z,3.70
2024-01-29T03:58:46.316Z,4.90
2024-01-29T04:01:34.971Z,4.40
2024-01-29T04:04:24.812Z,3.70
2024-01-29T04:07:13.351Z,3.23
2024-01-29T04:10:01.719Z,4.20
2024-01-29T04:12:50.115Z,3.40
2024-01-29T04:15:39.036Z,3.30
2024-01-29T04:18:27.707Z,3.60
2024-01-29T04:21:17.493Z,4.17
2024-01-29T04:24:06.320Z,3.50
2024-01-29T04:26:54.767Z,4.30
2024-01-29T04:29:43.385Z,5.47
2024-01-29T04:32:31.980Z,3.17
2024-01-29T04:35:20.404Z,5.60
2024-01-29T04:38:10.248Z,3.60
2024-01-29T04:40:58.562Z,3.10
2024-01-29T04:43:47.090Z,3.50
2024-01-29T04:46:35.437Z,3.27
2024-01-29T04:49:23.871Z,3.43
2024-01-29T04:52:12.522Z,3.60
2024-01-29T04:55:05.540Z,4.47
2024-01-29T04:57:54.425Z,3.90
2024-01-29T05:00:43.501Z,4.23
2024-01-29T05:03:32.091Z,3.90
2024-01-29T05:06:20.648Z,4.17
2024-01-29T05:09:10.602Z,4.18
2024-01-29T05:12:00.579Z,3.00
2024-01-29T05:14:49.070Z,4.23
2024-01-29T05:17:37.621Z,3.77
2024-01-29T05:20:27.031Z,4.80
2024-01-29T05:23:15.447Z,3.87
2024-01-29T05:26:03.765Z,3.90
2024-01-29T05:28:53.521Z,3.60
2024-01-29T05:31:41.836Z,5.23
2024-01-29T05:34:30.238Z,4.43
2024-01-29T05:37:18.633Z,6.35
2024-01-29T05:40:08.973Z,4.20
2024-01-29T05:42:57.353Z,5.23
2024-01-29T05:45:47.942Z,5.63
2024-01-29T05:48:36.558Z,5.63
2024-01-29T05:51:25.090Z,5.87
2024-01-29T05:54:13.477Z,6.10
2024-01-29T05:57:02.612Z,5.53
2024-01-29T05:59:51.005Z,5.90
2024-01-29T06:02:44.640Z,6.87
2024-01-29T06:05:33.411Z,5.53
2024-01-29T06:08:21.812Z,4.60
2024-01-29T06:11:10.376Z,5.13
2024-01-29T06:13:58.938Z,5.83
2024-01-29T06:16:47.200Z,6.00
2024-01-29T06:19:48.385Z,6.37
2024-01-29T06:22:45.325Z,4.40
2024-01-29T06:25:33.788Z,4.20
2024-01-29T06:28:22.567Z,5.03
2024-01-29T06:31:11.271Z,4.37
2024-01-29T06:34:00.070Z,5.50
2024-01-29T06:36:49.941Z,5.40
2024-01-29T06:39:38.486Z,4.40
2024-01-29T06:42:27.018Z,5.13
2024-01-29T06:45:15.363Z,5.33
2024-01-29T06:48:04.121Z,4.60
2024-01-29T06:50:52.480Z,5.53
2024-01-29T06:53:42.213Z,5.60
2024-01-29T06:56:30.636Z,4.93
2024-01-29T06:59:19.125Z,5.10
2024-01-29T07:02:08.968Z,6.00
2024-01-29T07:04:57.451Z,5.43
2024-01-29T07:07:46.236Z,5.40
2024-01-29T07:10:36.057Z,4.53
2024-01-29T07:13:24.549Z,4.70
2024-01-29T07:16:13.042Z,4.80
2024-01-29T07:19:01.688Z,3.90
2024-01-29T07:21:51.880Z,5.70
2024-01-29T07:24:40.633Z,5.17
2024-01-29T07:27:31.527Z,4.40
2024-01-29T07:30:19.944Z,5.40
2024-01-29T07:33:08.436Z,6.50
2024-01-29T07:35:56.881Z,4.90
2024-01-29T07:38:45.701Z,6.73
2024-01-29T07:41:34.260Z,5.20
2024-01-29T07:44:23.974Z,5.37
2024-01-29T07:47:13.418Z,5.00
2024-01-29T07:50:02.772Z,5.07
2024-01-29T07:52:51.085Z,4.57
2024-01-29T07:55:39.520Z,5.20
2024-01-29T07:58:27.990Z,3.80
2024-01-29T08:01:17.807Z,4.80
2024-01-29T08:04:06.761Z,5.83
2024-01-29T08:06:55.465Z,5.03
2024-01-29T08:09:44.078Z,4.63
2024-01-29T08:12:32.587Z,6.33
2024-01-29T08:15:20.892Z,4.40
2024-01-29T08:18:10.875Z,5.57
2024-01-29T08:20:59.449Z,6.07
2024-01-29T08:23:48.084Z,4.13
2024-01-29T08:26:36.671Z,5.53
2024-01-29T08:29:25.054Z,5.30
2024-01-29T08:32:13.425Z,4.77
2024-01-29T08:35:03.179Z,4.20
2024-01-29T08:37:51.728Z,4.53
2024-01-29T08:40:40.746Z,4.17
2024-01-29T08:43:29.049Z,6.20
2024-01-29T08:46:17.774Z,3.90
2024-01-29T08:49:06.555Z,8.00
2024-01-29T08:51:56.405Z,5.93
2024-01-29T08:54:45.438Z,3.13
2024-01-29T08:57:33.859Z,5.80
2024-01-29T09:00:22.761Z,4.03
2024-01-29T09:03:11.462Z,4.47
2024-01-29T09:06:00.213Z,3.90
2024-01-29T09:08:50.105Z,5.53
2024-01-29T09:11:38.420Z,4.77
2024-01-29T09:14:28.642Z,5.40
2024-01-29T09:17:17.090Z,5.27
2024-01-29T09:20:09.743Z,5.67
2024-01-29T09:22:58.226Z,3.43
2024-01-29T09:25:48.157Z,5.03
2024-01-29T09:28:39.055Z,4.53
2024-01-29T09:31:27.807Z,8.23
2024-01-29T09:34:16.456Z,4.80
2024-01-29T09:37:05.147Z,3.73
2024-01-29T09:39:54.940Z,3.53
2024-01-29T09:42:50.995Z,4.70
2024-01-29T09:45:40.203Z,3.40
2024-01-29T09:48:31.654Z,3.70
2024-01-29T09:51:22.712Z,3.47
2024-01-29T09:54:12.675Z,4.33
2024-01-29T09:57:01.084Z,3.20
2024-01-29T09:59:50.875Z,3.27
2024-01-29T10:02:39.724Z,3.20
2024-01-29T10:05:31.749Z,3.03
2024-01-29T10:08:21.071Z,2.73
2024-01-29T10:11:09.446Z,3.07
2024-01-29T10:14:01.579Z,2.83
2024-01-29T10:16:52.318Z,3.37
2024-01-29T10:19:40.865Z,2.90
2024-01-29T10:22:29.787Z,3.60
2024-01-29T10:25:19.140Z,2.80
2024-01-29T10:28:11.299Z,3.30
2024-01-29T10:31:00.592Z,2.87
2024-01-29T10:33:51.106Z,2.83
2024-01-29T10:36:41.287Z,2.63
2024-01-29T10:39:31.932Z,4.10
2024-01-29T10:42:22.132Z,3.53
2024-01-29T10:45:15.782Z,3.10
2024-01-29T10:48:22.717Z,2.85
2024-01-29T10:51:14.530Z,2.80
2024-01-29T10:54:04.026Z,2.80
2024-01-29T10:56:53.433Z,2.70
2024-01-29T10:59:45.040Z,2.50
2024-01-29T11:02:34.296Z,3.23
2024-01-29T11:05:23.450Z,3.83
2024-01-29T11:08:19.023Z,2.73
2024-01-29T11:11:08.425Z,2.67
2024-01-29T11:13:57.129Z,2.77
2024-01-29T11:16:47.118Z,2.77
2024-01-29T11:19:36.302Z,2.60
2024-01-29T11:22:24.872Z,2.63
2024-01-29T11:25:16.664Z,2.83
2024-01-29T11:28:08.845Z,2.70
2024-01-29T11:30:58.360Z,2.70
2024-01-29T11:33:47.246Z,2.70
2024-01-29T11:36:38.220Z,2.30
2024-01-29T11:39:28.931Z,2.65
2024-01-29T11:42:19.333Z,2.53
2024-01-29T11:45:10.400Z,2.53
2024-01-29T11:47:59.726Z,2.60
2024-01-29T11:50:49.523Z,2.60
2024-01-29T11:53:38.038Z,2.33
2024-01-29T11:56:26.418Z,2.47
2024-01-29T11:59:16.148Z,2.50
2024-01-29T12:02:04.904Z,2.47
2024-01-29T12:04:53.214Z,2.47
2024-01-29T12:07:41.801Z,2.57
2024-01-29T12:10:30.565Z,2.10
2024-01-29T12:13:20.212Z,2.23
2024-01-29T12:16:11.836Z,2.40
2024-01-29T12:19:01.318Z,2.17
2024-01-29T12:21:50.037Z,2.33
2024-01-29T12:24:38.469Z,2.10
2024-01-29T12:27:27.050Z,2.47
2024-01-29T12:30:16.488Z,2.30
2024-01-29T12:33:09.271Z,2.40
2024-01-29T12:35:58.096Z,2.37
2024-01-29T12:38:53.149Z,2.07
2024-01-29T12:41:42.249Z,2.33
2024-01-29T12:44:30.785Z,2.17
2024-01-29T12:47:20.839Z,2.20
2024-01-29T12:50:10.785Z,2.47
2024-01-29T12:53:01.279Z,2.67
2024-01-29T12:55:49.729Z,2.50
2024-01-29T12:58:38.820Z,2.23
2024-01-29T13:01:28.022Z,2.07
2024-01-29T13:04:18.194Z,2.40
2024-01-29T13:07:08.863Z,2.40
2024-01-29T13:09:58.596Z,2.60
2024-01-29T13:12:47.409Z,2.43
2024-01-29T13:15:36.194Z,2.13
2024-01-29T13:18:26.626Z,2.50
2024-01-29T13:21:17.010Z,2.07
2024-01-29T13:24:07.248Z,2.20
2024-01-29T13:26:56.778Z,2.10
2024-01-29T13:29:45.797Z,2.37
2024-01-29T13:32:34.647Z,2.30
2024-01-29T13:35:23.098Z,2.40
2024-01-29T13:38:12.174Z,2.40
2024-01-29T13:41:02.288Z,2.20
2024-01-29T13:43:50.879Z,1.90
2024-01-29T13:46:39.538Z,2.10
2024-01-29T13:49:28.919Z,2.70
2024-01-29T13:52:17.484Z,2.50
2024-01-29T13:55:06.346Z,2.53
2024-01-29T13:57:57.383Z,2.50
2024-01-29T14:00:47.153Z,2.20
2024-01-29T14:03:35.595Z,2.50
2024-01-29T14:06:24.093Z,2.50
2024-01-29T14:09:12.858Z,2.40
2024-01-29T14:12:01.344Z,2.40
2024-01-29T14:14:51.375Z,2.50
2024-01-29T14:17:40.782Z,2.33
2024-01-29T14:20:29.703Z,2.30
2024-01-29T14:23:18.453Z,2.50
2024-01-29T14:26:07.600Z,2.30
2024-01-29T14:28:56.568Z,2.77
2024-01-29T14:31:46.514Z,2.57
2024-01-29T14:34:35.002Z,2.60
2024-01-29T14:37:23.641Z,2.90
2024-01-29T14:40:13.324Z,3.77
2024-01-29T14:43:02.299Z,2.22
2024-01-29T14:45:50.857Z,3.53
2024-01-29T14:48:42.156Z,2.07
2024-01-29T14:51:31.392Z,2.70
2024-01-29T14:54:20.643Z,2.57
2024-01-29T14:57:09.276Z,2.53
2024-01-29T14:59:57.694Z,2.20
2024-01-29T15:02:46.478Z,3.30
2024-01-29T15:05:36.416Z,2.40
2024-01-29T15:08:24.877Z,2.27
2024-01-29T15:11:13.160Z,2.70
2024-01-29T15:14:01.700Z,2.63
2024-01-29T15:16:58.987Z,2.57
2024-01-29T15:19:47.602Z,2.43
2024-01-29T15:22:37.633Z,2.30
2024-01-29T15:25:26.066Z,2.67
2024-01-29T15:28:14.496Z,2.50
2024-01-29T15:31:02.918Z,3.17
2024-01-29T15:33:52.960Z,2.47
2024-01-29T15:36:41.980Z,3.13
2024-01-29T15:39:31.955Z,3.10
2024-01-29T15:42:20.315Z,3.53
2024-01-29T15:45:10.053Z,3.37
2024-01-29T15:47:58.490Z,3.00
2024-01-29T15:50:47.354Z,2.70
2024-01-29T15:53:36.435Z,2.80
2024-01-29T15:56:26.193Z,2.93
2024-01-29T15:59:14.644Z,3.70
2024-01-29T16:02:07.619Z,5.07
2024-01-29T16:04:56.282Z,3.07
2024-01-29T16:07:48.475Z,3.07
2024-01-29T16:10:36.766Z,3.57
2024-01-29T16:13:26.728Z,2.50
2024-01-29T16:16:16.637Z,3.60
2024-01-29T16:19:05.678Z,2.70
2024-01-29T16:21:54.764Z,2.67
2024-01-29T16:24:43.290Z,3.03
2024-01-29T16:27:32.315Z,3.50
2024-01-29T16:30:22.139Z,3.63
2024-01-29T16:33:10.628Z,2.57
2024-01-29T16:35:58.948Z,3.27
2024-01-29T16:38:48.044Z,3.10
2024-01-29T16:41:36.341Z,2.63
2024-01-29T16:44:24.697Z,3.73
2024-01-29T16:47:14.552Z,3.80
2024-01-29T16:50:03.075Z,3.17
2024-01-29T16:52:52.875Z,3.23
2024-01-29T16:55:41.220Z,3.23
2024-01-29T16:58:29.792Z,2.90
2024-01-29T17:01:18.308Z,3.00
2024-01-29T17:04:08.480Z,2.87
2024-01-29T17:06:57.015Z,3.30
2024-01-29T17:09:45.581Z,3.33
2024-01-29T17:12:34.260Z,3.67
2024-01-29T17:15:22.568Z,3.00
2024-01-29T17:18:11.714Z,3.77
2024-01-29T17:21:01.784Z,3.73
2024-01-29T17:23:50.167Z,3.30
2024-01-29T17:26:38.636Z,3.43
2024-01-29T17:29:26.993Z,2.80
2024-01-29T17:32:15.636Z,3.20
2024-01-29T17:35:04.601Z,3.27
2024-01-29T17:37:55.776Z,4.20
2024-01-29T17:40:44.502Z,4.80
2024-01-29T17:43:33.352Z,4.83
2024-01-29T17:46:21.892Z,2.83
2024-01-29T17:49:11.386Z,4.03
2024-01-29T17:51:59.844Z,4.50
2024-01-29T17:54:49.750Z,3.30
2024-01-29T17:57:38.353Z,3.73
2024-01-29T18:00:28.632Z,3.43
2024-01-29T18:03:17.378Z,5.40
2024-01-29T18:06:06.934Z,3.70
2024-01-29T18:08:55.529Z,2.90
2024-01-29T18:11:47.133Z,6.70
2024-01-29T18:14:35.875Z,3.57
2024-01-29T18:17:24.515Z,3.47
2024-01-29T18:20:14.131Z,4.47
2024-01-29T18:23:03.974Z,7.20
2024-01-29T18:25:52.659Z,4.23
2024-01-29T18:28:42.625Z,3.43
2024-01-29T18:31:31.577Z,3.80
2024-01-29T18:34:20.211Z,4.00
2024-01-29T18:37:08.790Z,4.60
2024-01-29T18:39:57.937Z,6.47
2024-01-29T18:42:47.533Z,4.23
2024-01-29T18:45:38.618Z,5.03
2024-01-29T18:48:27.597Z,6.03
2024-01-29T18:51:25.966Z,4.40
2024-01-29T18:54:14.763Z,4.57
2024-01-29T18:57:03.497Z,5.00
2024-01-29T18:59:51.962Z,4.80
2024-01-29T19:02:44.442Z,5.90
2024-01-29T19:05:33.363Z,5.50
2024-01-29T19:08:22.121Z,7.70
2024-01-29T19:11:11.070Z,5.97
2024-01-29T19:13:59.725Z,5.70
2024-01-29T19:16:48.231Z,4.23
2024-01-29T19:19:39.542Z,6.10
2024-01-29T19:22:28.129Z,4.73
2024-01-29T19:25:17.148Z,6.00
2024-01-29T19:28:08.255Z,5.07
2024-01-29T19:30:56.948Z,4.80
2024-01-29T19:33:45.837Z,5.05
2024-01-29T19:36:41.085Z,6.10
2024-01-29T19:39:29.837Z,6.30
2024-01-29T19:42:18.591Z,5.07
2024-01-29T19:45:08.149Z,5.00
2024-01-29T19:47:56.859Z,5.73
2024-01-29T19:50:45.542Z,5.60
2024-01-29T19:53:36.315Z,5.60
2024-01-29T19:56:24.825Z,4.67
2024-01-29T19:59:13.208Z,6.47
2024-01-29T20:02:02.194Z,5.87
2024-01-29T20:04:51.901Z,5.00
2024-01-29T20:07:40.364Z,5.33
2024-01-29T20:10:30.572Z,5.10
2024-01-29T20:13:19.306Z,5.90
2024-01-29T20:16:09.198Z,5.17
2024-01-29T20:18:57.856Z,4.57
2024-01-29T20:21:46.984Z,5.00
2024-01-29T20:24:36.007Z,4.77
2024-01-29T20:27:26.413Z,4.80
2024-01-29T20:30:16.067Z,5.83
2024-01-29T20:33:05.345Z,4.20
2024-01-29T20:35:55.940Z,5.20
2024-01-29T20:38:45.714Z,6.03
2024-01-29T20:41:42.539Z,4.83
2024-01-29T20:44:36.524Z,5.10
2024-01-29T20:47:25.247Z,5.40
2024-01-29T20:50:13.952Z,5.30
2024-01-29T20:53:02.658Z,6.23
2024-01-29T20:55:51.203Z,5.70
2024-01-29T20:58:39.711Z,5.20
2024-01-29T21:01:34.409Z,5.67
2024-01-29T21:04:23.601Z,5.97
2024-01-29T21:07:13.659Z,5.63
2024-01-29T21:10:02.159Z,5.20
2024-01-29T21:12:51.027Z,4.90
2024-01-29T21:15:39.897Z,5.20
2024-01-29T21:18:29.983Z,4.43
2024-01-29T21:21:18.886Z,4.43
2024-01-29T21:24:07.837Z,4.63
2024-01-29T21:26:58.865Z,5.10
2024-01-29T21:29:47.553Z,4.97
2024-01-29T21:32:36.154Z,7.80
2024-01-29T21:35:26.155Z,4.93
2024-01-29T21:38:14.684Z,6.10
2024-01-29T21:41:04.385Z,5.40
2024-01-29T21:43:52.975Z,5.27
2024-01-29T21:46:42.249Z,5.93
2024-01-29T21:49:30.821Z,5.17
2024-01-29T21:52:20.938Z,4.63
2024-01-29T21:55:10.188Z,4.80
2024-01-29T21:57:59.411Z,5.80
2024-01-29T22:00:48.144Z,4.63
2024-01-29T22:03:36.860Z,5.28
2024-01-29T22:06:25.552Z,5.40
2024-01-29T22:09:15.528Z,6.93
2024-01-29T22:12:04.264Z,5.60
2024-01-29T22:14:52.701Z,5.03
2024-01-29T22:17:41.630Z,6.63
2024-01-29T22:20:30.224Z,4.73
2024-01-29T22:23:18.794Z,4.87
2024-01-29T22:26:08.767Z,4.73
2024-01-29T22:28:58.260Z,5.00
2024-01-29T22:31:47.010Z,5.70
2024-01-29T22:34:35.838Z,5.50
2024-01-29T22:37:24.407Z,5.10
2024-01-29T22:40:14.242Z,4.60
2024-01-29T22:43:04.285Z,4.20
2024-01-29T22:45:52.826Z,5.03
2024-01-29T22:48:41.477Z,4.40
2024-01-29T22:51:29.908Z,5.60
2024-01-29T22:54:18.652Z,4.90
2024-01-29T22:57:07.428Z,5.57
2024-01-29T22:59:57.694Z,4.73
2024-01-29T23:02:47.106Z,5.07
2024-01-29T23:05:36.078Z,7.20
2024-01-29T23:08:24.659Z,7.10
2024-01-29T23:11:13.466Z,5.27
2024-01-29T23:14:02.073Z,5.28
2024-01-29T23:16:52.076Z,5.30
2024-01-29T23:19:40.386Z,4.70
2024-01-29T23:22:29.040Z,4.70
2024-01-29T23:25:17.734Z,5.13
2024-01-29T23:28:06.712Z,6.07
2024-01-29T23:30:55.312Z,5.20
2024-01-29T23:33:45.566Z,5.30
2024-01-29T23:36:33.893Z,5.20
2024-01-29T23:39:22.406Z,6.20
2024-01-29T23:42:10.702Z,5.00
2024-01-29T23:44:59.262Z,5.60
2024-01-29T23:47:47.620Z,5.28
2024-01-29T23:50:37.357Z,5.63
2024-01-29T23:53:25.753Z,5.60
2024-01-29T23:56:14.162Z,5.07
2024-01-29T23:59:02.686Z,5.03
